createdAt,value
2022-10-05T00:00:54.609Z,77.10
2022-10-05T00:03:22.667Z,77.48
2022-10-05T00:05:50.283Z,77.43
2022-10-05T00:08:19.173Z,77.59
2022-10-05T00:10:47.075Z,77.32
2022-10-05T00:13:15.006Z,77.54
2022-10-05T00:15:42.699Z,77.23
2022-10-05T00:18:15.977Z,77.72
2022-10-05T00:20:43.538Z,77.66
2022-10-05T00:23:14.063Z,77.27
2022-10-05T00:25:41.508Z,76.89
2022-10-05T00:28:11.360Z,77.49
2022-10-05T00:30:38.823Z,77.01
2022-10-05T00:33:06.288Z,77.47
2022-10-05T00:35:35.283Z,77.97
2022-10-05T00:38:02.719Z,78.46
2022-10-05T00:40:36.265Z,78.13
2022-10-05T00:43:08.046Z,77.87
2022-10-05T00:45:36.842Z,78.07
2022-10-05T00:48:06.715Z,77.82
2022-10-05T00:50:51.855Z,77.83
2022-10-05T00:53:24.436Z,78.46
2022-10-05T00:55:54.696Z,77.71
2022-10-05T00:58:24.035Z,78.13
2022-10-05T01:00:52.556Z,78.02
2022-10-05T01:03:20.700Z,78.36
2022-10-05T01:05:51.341Z,78.07
2022-10-05T01:08:22.231Z,78.40
2022-10-05T01:10:52.564Z,77.91
2022-10-05T01:13:21.846Z,78.25
2022-10-05T01:15:50.478Z,78.81
2022-10-05T01:18:20.223Z,78.07
2022-10-05T01:20:50.935Z,78.49
2022-10-05T01:23:33.275Z,78.77
2022-10-05T01:26:07.056Z,78.13
2022-10-05T01:28:36.838Z,78.92
2022-10-05T01:31:06.001Z,78.27
2022-10-05T01:33:34.315Z,77.84
2022-10-05T01:36:03.756Z,78.20
2022-10-05T01:38:34.521Z,78.18
2022-10-05T01:41:05.050Z,77.97
2022-10-05T01:43:37.076Z,78.05
2022-10-05T01:46:07.701Z,78.58
2022-10-05T01:48:37.869Z,78.26
2022-10-05T01:51:07.404Z,79.23
2022-10-05T01:53:38.149Z,78.80
2022-10-05T01:56:07.435Z,78.38
2022-10-05T01:58:37.263Z,78.41
2022-10-05T02:01:06.509Z,78.27
2022-10-05T02:03:36.676Z,78.24
2022-10-05T02:06:05.698Z,78.05
2022-10-05T02:08:33.520Z,79.89
2022-10-05T02:11:02.029Z,78.96
2022-10-05T02:13:31.849Z,78.78
2022-10-05T02:16:01.382Z,78.62
2022-10-05T02:18:30.091Z,78.48
2022-10-05T02:20:57.567Z,78.51
2022-10-05T02:23:25.380Z,78.60
2022-10-05T02:25:53.434Z,78.44
2022-10-05T02:28:21.637Z,78.05
2022-10-05T02:30:50.309Z,78.35
2022-10-05T02:33:20.434Z,78.59
2022-10-05T02:35:47.869Z,78.56
2022-10-05T02:38:15.710Z,78.60
2022-10-05T02:40:46.314Z,78.47
2022-10-05T02:43:17.757Z,78.42
2022-10-05T02:45:46.644Z,78.55
2022-10-05T02:48:15.759Z,79.00
2022-10-05T02:50:46.390Z,78.37
2022-10-05T02:53:16.121Z,79.19
2022-10-05T02:55:44.781Z,78.37
2022-10-05T02:58:13.356Z,78.64
2022-10-05T03:00:41.922Z,78.79
2022-10-05T03:03:09.990Z,78.60
2022-10-05T03:05:39.032Z,78.90
2022-10-05T03:08:08.849Z,79.25
2022-10-05T03:10:38.350Z,78.52
2022-10-05T03:13:06.678Z,78.93
2022-10-05T03:15:41.558Z,79.25
2022-10-05T03:18:10.133Z,79.48
2022-10-05T03:20:39.263Z,79.60
2022-10-05T03:23:08.821Z,80.23
2022-10-05T03:25:54.064Z,80.40
2022-10-05T03:28:23.668Z,79.58
2022-10-05T03:30:53.291Z,79.85
2022-10-05T03:33:23.122Z,79.65
2022-10-05T03:35:52.165Z,79.61
2022-10-05T03:38:22.279Z,80.35
2022-10-05T03:40:51.975Z,80.45
2022-10-05T03:43:29.839Z,79.68
2022-10-05T03:45:58.276Z,79.46
2022-10-05T03:48:27.145Z,79.88
2022-10-05T03:50:56.670Z,79.45
2022-10-05T03:53:26.698Z,80.01
2022-10-05T03:55:54.700Z,79.70
2022-10-05T03:58:23.392Z,80.05
2022-10-05T04:00:51.457Z,79.72
2022-10-05T04:03:20.123Z,79.69
2022-10-05T04:05:48.090Z,79.45
2022-10-05T04:08:18.171Z,79.58
2022-10-05T04:10:47.977Z,79.90
2022-10-05T04:13:16.701Z,80.23
2022-10-05T04:15:45.362Z,80.16
2022-10-05T04:18:15.790Z,79.87
2022-10-05T04:20:44.260Z,80.58
2022-10-05T04:23:14.446Z,79.95
2022-10-05T04:25:43.032Z,79.74
2022-10-05T04:28:13.220Z,79.35
2022-10-05T04:30:40.984Z,79.51
2022-10-05T04:33:10.114Z,80.17
2022-10-05T04:35:51.199Z,81.04
2022-10-05T04:38:23.363Z,79.45
2022-10-05T04:40:53.851Z,80.93
2022-10-05T04:43:24.920Z,80.98
2022-10-05T04:45:57.253Z,80.80
2022-10-05T04:48:31.873Z,79.96
2022-10-05T04:51:02.161Z,81.71
2022-10-05T04:53:31.305Z,80.08
2022-10-05T04:55:59.286Z,81.01
2022-10-05T04:58:32.390Z,80.67
2022-10-05T05:01:03.698Z,80.09
2022-10-05T05:03:51.333Z,80.33
2022-10-05T05:06:21.980Z,80.13
2022-10-05T05:09:03.106Z,80.06
2022-10-05T05:11:30.583Z,79.76
2022-10-05T05:14:03.392Z,79.81
2022-10-05T05:16:32.991Z,80.29
2022-10-05T05:19:08.222Z,80.01
2022-10-05T05:21:37.988Z,80.79
2022-10-05T05:24:06.767Z,80.49
2022-10-05T05:26:38.991Z,79.97
2022-10-05T05:29:10.039Z,80.31
2022-10-05T05:31:40.002Z,81.55
2022-10-05T05:34:10.012Z,80.76
2022-10-05T05:36:43.815Z,80.08
2022-10-05T05:39:18.545Z,80.37
2022-10-05T05:41:47.491Z,80.25
2022-10-05T05:44:18.689Z,80.73
2022-10-05T05:47:04.913Z,80.88
2022-10-05T05:49:39.233Z,80.59
2022-10-05T05:52:07.743Z,80.48
2022-10-05T05:54:36.413Z,80.21
2022-10-05T05:57:08.987Z,80.78
2022-10-05T05:59:45.347Z,79.80
2022-10-05T06:02:13.653Z,79.80
2022-10-05T06:04:43.694Z,80.46
2022-10-05T06:07:12.230Z,79.61
2022-10-05T06:09:40.913Z,80.93
2022-10-05T06:12:08.772Z,79.94
2022-10-05T06:14:36.477Z,82.23
2022-10-05T06:17:06.343Z,82.61
2022-10-05T06:19:34.514Z,80.15
2022-10-05T06:22:02.497Z,80.30
2022-10-05T06:24:31.087Z,81.96
2022-10-05T06:27:02.274Z,80.49
2022-10-05T06:29:32.510Z,79.83
2022-10-05T06:32:03.428Z,81.36
2022-10-05T06:34:38.867Z,80.50
2022-10-05T06:37:07.268Z,80.75
2022-10-05T06:39:55.444Z,81.34
2022-10-05T06:42:34.192Z,80.09
2022-10-05T06:45:02.263Z,80.28
2022-10-05T06:47:30.995Z,79.79
2022-10-05T06:50:05.144Z,79.91
2022-10-05T06:52:35.479Z,80.78
2022-10-05T06:55:11.874Z,81.63
2022-10-05T06:57:45.301Z,79.64
2022-10-05T07:00:16.346Z,81.43
2022-10-05T07:02:45.643Z,80.77
2022-10-05T07:05:21.194Z,80.47
2022-10-05T07:07:50.271Z,82.26
2022-10-05T07:10:18.853Z,81.97
2022-10-05T07:12:50.785Z,80.48
2022-10-05T07:15:26.023Z,80.06
2022-10-05T07:17:56.459Z,80.35
2022-10-05T07:20:27.006Z,81.59
2022-10-05T07:23:15.352Z,80.35
2022-10-05T07:25:43.536Z,80.73
2022-10-05T07:28:13.111Z,81.19
2022-10-05T07:30:41.524Z,81.75
2022-10-05T07:33:09.768Z,80.58
2022-10-05T07:36:01.155Z,80.43
2022-10-05T07:38:32.619Z,80.12
2022-10-05T07:41:00.437Z,80.21
2022-10-05T07:43:45.221Z,83.15
2022-10-05T07:46:14.471Z,80.17
2022-10-05T07:48:46.234Z,80.31
2022-10-05T07:51:16.863Z,82.51
2022-10-05T07:53:45.908Z,80.89
2022-10-05T07:56:14.827Z,80.58
2022-10-05T07:58:44.547Z,80.57
2022-10-05T08:01:13.116Z,80.00
2022-10-05T08:03:44.398Z,80.32
2022-10-05T08:06:12.641Z,80.38
2022-10-05T08:08:46.180Z,79.56
2022-10-05T08:11:14.761Z,80.25
2022-10-05T08:13:43.592Z,80.11
2022-10-05T08:16:12.541Z,79.99
2022-10-05T08:18:42.305Z,79.81
2022-10-05T08:21:11.967Z,79.58
2022-10-05T08:23:42.387Z,81.31
2022-10-05T08:26:13.637Z,80.57
2022-10-05T08:28:42.591Z,80.18
2022-10-05T08:31:12.982Z,79.72
2022-10-05T08:33:43.464Z,79.23
2022-10-05T08:36:11.930Z,79.33
2022-10-05T08:38:40.786Z,78.84
2022-10-05T08:41:29.320Z,79.37
2022-10-05T08:44:11.076Z,79.25
2022-10-05T08:46:50.069Z,78.34
2022-10-05T08:49:21.938Z,80.14
2022-10-05T08:51:50.700Z,79.25
2022-10-05T08:54:36.612Z,78.52
2022-10-05T08:57:22.519Z,79.77
2022-10-05T09:00:10.885Z,78.67
2022-10-05T09:02:42.931Z,78.59
2022-10-05T09:05:14.273Z,80.88
2022-10-05T09:07:45.756Z,79.83
2022-10-05T09:10:23.546Z,79.00
2022-10-05T09:13:10.516Z,80.19
2022-10-05T09:15:46.021Z,79.47
2022-10-05T09:18:28.413Z,79.13
2022-10-05T09:20:56.049Z,78.43
2022-10-05T09:23:28.527Z,78.95
2022-10-05T09:25:57.939Z,79.15
2022-10-05T09:28:29.095Z,79.33
2022-10-05T09:31:02.546Z,79.52
2022-10-05T09:33:34.727Z,78.87
2022-10-05T09:36:20.903Z,78.42
2022-10-05T09:38:54.599Z,79.43
2022-10-05T09:41:27.308Z,80.38
2022-10-05T09:44:19.178Z,78.52
2022-10-05T09:46:54.725Z,78.55
2022-10-05T09:49:30.571Z,78.66
2022-10-05T09:52:11.594Z,79.37
2022-10-05T09:55:32.910Z,77.99
2022-10-05T09:58:06.693Z,79.03
2022-10-05T10:00:40.761Z,78.05
2022-10-05T10:03:16.525Z,77.83
2022-10-05T10:05:50.154Z,78.54
2022-10-05T10:08:23.402Z,77.85
2022-10-05T10:11:05.790Z,77.59
2022-10-05T10:13:42.001Z,77.18
2022-10-05T10:16:14.126Z,77.75
2022-10-05T10:19:03.010Z,76.42
2022-10-05T10:21:49.665Z,76.74
2022-10-05T10:24:19.536Z,76.67
2022-10-05T10:26:55.254Z,76.58
2022-10-05T10:29:40.497Z,76.94
2022-10-05T10:32:11.443Z,76.23
2022-10-05T10:34:52.903Z,76.30
2022-10-05T10:37:33.610Z,77.47
2022-10-05T10:40:09.085Z,76.12
2022-10-05T10:42:38.639Z,75.68
2022-10-05T10:45:09.109Z,75.53
2022-10-05T10:47:41.650Z,75.79
2022-10-05T10:50:13.037Z,76.14
2022-10-05T10:52:43.818Z,76.83
2022-10-05T10:55:21.765Z,75.92
2022-10-05T10:57:53.173Z,75.66
2022-10-05T11:00:24.834Z,75.84
2022-10-05T11:02:57.862Z,76.29
2022-10-05T11:05:39.683Z,75.75
2022-10-05T11:08:10.302Z,75.85
2022-10-05T11:10:46.494Z,75.87
2022-10-05T11:13:31.693Z,75.76
2022-10-05T11:16:13.497Z,75.66
2022-10-05T11:19:05.577Z,75.67
2022-10-05T11:21:36.829Z,75.89
2022-10-05T11:24:22.005Z,75.62
2022-10-05T11:26:56.787Z,75.70
2022-10-05T11:29:48.592Z,75.24
2022-10-05T11:32:33.676Z,75.20
2022-10-05T11:35:16.501Z,75.12
2022-10-05T11:38:01.678Z,74.75
2022-10-05T11:40:48.374Z,75.36
2022-10-05T11:43:36.770Z,75.58
2022-10-05T11:46:06.300Z,75.40
2022-10-05T11:48:35.393Z,75.44
2022-10-05T11:51:13.098Z,75.32
2022-10-05T11:53:41.003Z,75.31
2022-10-05T11:56:09.970Z,75.55
2022-10-05T11:58:39.521Z,75.73
2022-10-05T12:01:07.576Z,76.00
2022-10-05T12:03:38.652Z,75.49
2022-10-05T12:06:23.656Z,75.62
2022-10-05T12:08:54.736Z,75.86
2022-10-05T12:11:33.116Z,75.51
2022-10-05T12:14:02.683Z,75.40
2022-10-05T12:16:31.582Z,75.58
2022-10-05T12:19:00.177Z,74.98
2022-10-05T12:21:30.252Z,75.32
2022-10-05T12:23:58.688Z,74.82
2022-10-05T12:26:26.894Z,75.25
2022-10-05T12:28:55.186Z,75.36
2022-10-05T12:31:26.375Z,75.31
2022-10-05T12:33:56.861Z,75.08
2022-10-05T12:36:31.954Z,75.25
2022-10-05T12:39:09.407Z,75.29
2022-10-05T12:41:40.372Z,75.40
2022-10-05T12:44:11.285Z,75.18
2022-10-05T12:46:42.521Z,75.45
2022-10-05T12:49:22.153Z,75.36
2022-10-05T12:51:51.226Z,75.38
2022-10-05T12:54:20.709Z,76.00
2022-10-05T12:56:50.193Z,75.67
2022-10-05T12:59:21.209Z,75.44
2022-10-05T13:01:51.393Z,75.71
2022-10-05T13:04:21.158Z,75.79
2022-10-05T13:06:52.149Z,75.38
2022-10-05T13:09:19.852Z,75.77
2022-10-05T13:11:48.339Z,75.47
2022-10-05T13:14:18.251Z,75.55
2022-10-05T13:16:49.207Z,75.71
2022-10-05T13:19:28.923Z,74.86
2022-10-05T13:22:02.766Z,74.74
2022-10-05T13:24:31.282Z,75.28
2022-10-05T13:27:00.527Z,75.07
2022-10-05T13:29:29.500Z,75.78
2022-10-05T13:31:57.684Z,75.57
2022-10-05T13:34:29.358Z,75.57
2022-10-05T13:37:10.682Z,75.49
2022-10-05T13:39:47.640Z,75.47
2022-10-05T13:42:16.465Z,75.81
2022-10-05T13:44:45.229Z,75.83
2022-10-05T13:47:16.679Z,75.85
2022-10-05T13:49:48.177Z,75.99
2022-10-05T13:52:18.140Z,76.21
2022-10-05T13:54:47.200Z,76.15
2022-10-05T13:57:17.146Z,76.18
2022-10-05T13:59:45.843Z,75.86
2022-10-05T14:02:13.657Z,76.19
2022-10-05T14:07:15.429Z,76.42
2022-10-05T14:09:43.960Z,76.11
2022-10-05T14:12:15.359Z,76.24
2022-10-05T14:14:47.545Z,76.19
2022-10-05T14:17:41.800Z,76.16
2022-10-05T14:20:25.863Z,76.07
2022-10-05T14:22:57.711Z,75.29
2022-10-05T14:25:25.199Z,75.12
2022-10-05T14:27:54.361Z,75.23
2022-10-05T14:30:23.747Z,74.90
2022-10-05T14:32:55.964Z,75.18
2022-10-05T14:37:48.387Z,72.87
2022-10-05T14:40:25.846Z,73.59
2022-10-05T14:42:53.719Z,72.14
2022-10-05T14:45:22.476Z,71.31
2022-10-05T14:47:51.612Z,70.73
2022-10-05T14:50:21.383Z,70.04
2022-10-05T14:53:05.472Z,69.51
2022-10-05T14:56:08.395Z,69.19
2022-10-05T14:58:51.659Z,69.60
2022-10-05T15:01:26.414Z,68.96
2022-10-05T15:04:02.245Z,69.08
2022-10-05T15:06:35.472Z,68.87
2022-10-05T15:09:24.590Z,68.75
2022-10-05T15:11:54.854Z,68.29
2022-10-05T15:14:25.243Z,68.44
2022-10-05T15:16:54.373Z,68.73
2022-10-05T15:19:25.620Z,68.97
2022-10-05T15:22:15.539Z,68.25
2022-10-05T15:24:52.700Z,68.13
2022-10-05T15:27:26.176Z,67.98
2022-10-05T15:30:00.919Z,68.09
2022-10-05T15:32:42.099Z,68.10
2022-10-05T15:35:41.691Z,68.03
2022-10-05T15:38:20.931Z,68.23
2022-10-05T15:40:58.899Z,67.72
2022-10-05T15:43:36.069Z,67.94
2022-10-05T15:46:08.637Z,67.67
2022-10-05T15:48:43.518Z,67.99
2022-10-05T15:51:17.722Z,68.06
2022-10-05T15:53:48.206Z,67.29
2022-10-05T15:56:21.614Z,67.75
2022-10-05T15:58:56.809Z,66.92
2022-10-05T16:01:45.277Z,66.81
2022-10-05T16:04:16.273Z,66.45
2022-10-05T16:07:07.775Z,66.82
2022-10-05T16:09:42.989Z,66.63
2022-10-05T16:12:18.525Z,66.73
2022-10-05T16:14:55.923Z,66.70
2022-10-05T16:17:35.584Z,67.05
2022-10-05T16:20:22.222Z,66.68
2022-10-05T16:22:59.302Z,66.96
2022-10-05T16:25:31.783Z,66.98
2022-10-05T16:28:10.526Z,66.52
2022-10-05T16:30:44.988Z,66.56
2022-10-05T16:33:16.956Z,66.17
2022-10-05T16:35:49.483Z,66.42
2022-10-05T16:38:24.912Z,66.82
2022-10-05T16:41:02.163Z,66.68
2022-10-05T16:43:38.154Z,66.70
2022-10-05T16:46:11.246Z,66.57
2022-10-05T16:48:41.739Z,65.60
2022-10-05T16:51:24.923Z,65.18
2022-10-05T16:54:00.020Z,65.09
2022-10-05T16:58:19.310Z,64.29
2022-10-05T17:00:54.822Z,64.31
2022-10-05T17:03:28.687Z,64.14
2022-10-05T17:06:12.258Z,64.32
2022-10-05T17:08:57.778Z,64.25
2022-10-05T17:11:35.723Z,63.59
2022-10-05T17:14:54.219Z,62.43
2022-10-05T17:17:58.756Z,61.10
2022-10-05T17:20:42.934Z,60.53
2022-10-05T17:23:32.439Z,60.77
2022-10-05T17:27:02.895Z,59.83
2022-10-05T17:29:47.424Z,60.33
2022-10-05T17:32:41.240Z,59.76
2022-10-05T17:35:22.082Z,59.53
2022-10-05T17:38:14.170Z,59.54
2022-10-05T17:40:42.633Z,60.09
2022-10-05T17:43:27.682Z,59.62
2022-10-05T17:45:58.221Z,60.28
2022-10-05T17:49:07.716Z,60.42
2022-10-05T17:52:15.451Z,60.61
2022-10-05T17:55:30.546Z,60.31
2022-10-05T17:58:00.717Z,60.65
2022-10-05T18:00:49.888Z,60.86
2022-10-05T18:03:40.730Z,60.40
2022-10-05T18:06:39.332Z,60.71
2022-10-05T18:09:20.859Z,60.77
2022-10-05T18:12:10.996Z,60.42
2022-10-05T18:15:02.778Z,61.01
2022-10-05T18:17:41.966Z,60.93
2022-10-05T18:20:31.690Z,61.24
2022-10-05T18:23:29.670Z,61.03
2022-10-05T18:26:06.254Z,61.26
2022-10-05T18:28:44.521Z,61.26
2022-10-05T18:31:23.452Z,61.63
2022-10-05T18:34:26.243Z,61.74
2022-10-05T18:37:07.032Z,61.43
2022-10-05T18:39:51.846Z,61.82
2022-10-05T18:42:25.235Z,62.10
2022-10-05T18:44:56.493Z,61.89
2022-10-05T18:47:29.848Z,61.98
2022-10-05T18:50:21.288Z,62.33
2022-10-05T18:52:59.299Z,62.61
2022-10-05T18:55:32.925Z,62.23
2022-10-05T18:58:26.444Z,62.29
2022-10-05T19:01:28.001Z,62.44
2022-10-05T19:04:14.329Z,62.94
2022-10-05T19:06:50.129Z,62.86
2022-10-05T19:09:27.876Z,62.54
2022-10-05T19:11:58.893Z,62.81
2022-10-05T19:14:34.689Z,62.90
2022-10-05T19:17:19.874Z,63.22
2022-10-05T19:20:00.030Z,62.95
2022-10-05T19:22:40.278Z,62.83
2022-10-05T19:25:22.621Z,62.93
2022-10-05T19:27:57.832Z,62.73
2022-10-05T19:30:27.336Z,62.85
2022-10-05T19:33:04.905Z,63.06
2022-10-05T19:35:35.211Z,62.95
2022-10-05T19:38:15.683Z,63.23
2022-10-05T19:40:47.466Z,63.08
2022-10-05T19:43:25.842Z,63.09
2022-10-05T19:46:01.716Z,63.15
2022-10-05T19:48:34.020Z,63.07
2022-10-05T19:51:02.915Z,63.59
2022-10-05T19:53:36.372Z,63.54
2022-10-05T19:56:19.015Z,63.45
2022-10-05T19:58:47.431Z,63.79
2022-10-05T20:01:25.046Z,63.78
2022-10-05T20:03:53.860Z,63.82
2022-10-05T20:06:22.567Z,63.95
2022-10-05T20:08:53.050Z,64.20
2022-10-05T20:11:21.577Z,64.12
2022-10-05T20:14:19.025Z,64.42
2022-10-05T20:17:06.414Z,64.80
2022-10-05T20:20:02.296Z,64.91
2022-10-05T20:22:34.204Z,64.87
2022-10-05T20:25:06.184Z,65.20
2022-10-05T20:27:44.049Z,65.43
2022-10-05T20:30:13.221Z,65.49
2022-10-05T20:32:41.507Z,65.66
2022-10-05T20:35:09.760Z,65.39
2022-10-05T20:37:37.864Z,65.68
2022-10-05T20:40:08.044Z,65.58
2022-10-05T20:42:35.644Z,65.60
2022-10-05T20:45:04.072Z,66.01
2022-10-05T20:47:32.079Z,66.11
2022-10-05T20:49:59.704Z,66.34
2022-10-05T20:52:27.332Z,66.55
2022-10-05T20:54:56.565Z,66.80
2022-10-05T20:57:26.623Z,67.28
2022-10-05T20:59:54.683Z,68.16
2022-10-05T21:02:22.319Z,68.63
2022-10-05T21:04:50.210Z,65.11
2022-10-05T21:07:21.075Z,66.38
2022-10-05T21:09:48.802Z,66.10
2022-10-05T21:12:17.318Z,65.39
2022-10-05T21:14:47.608Z,65.57
2022-10-05T21:17:15.322Z,66.00
2022-10-05T21:19:43.144Z,66.27
2022-10-05T21:22:11.319Z,66.37
2022-10-05T21:24:40.341Z,66.66
2022-10-05T21:27:08.492Z,67.28
2022-10-05T21:29:37.010Z,67.44
2022-10-05T21:32:08.609Z,67.82
2022-10-05T21:34:36.437Z,67.98
2022-10-05T21:37:04.331Z,68.27
2022-10-05T21:39:33.540Z,68.80
2022-10-05T21:42:01.787Z,69.82
2022-10-05T21:44:29.516Z,70.68
2022-10-05T21:46:57.549Z,71.31
2022-10-05T21:49:27.000Z,72.25
2022-10-05T21:51:55.133Z,72.62
2022-10-05T21:54:23.661Z,73.40
2022-10-05T21:56:52.540Z,73.74
2022-10-05T21:59:21.766Z,73.74
2022-10-05T22:01:49.393Z,74.69
2022-10-05T22:04:17.324Z,74.07
2022-10-05T22:06:46.454Z,74.26
2022-10-05T22:09:14.037Z,73.94
2022-10-05T22:11:41.756Z,73.93
2022-10-05T22:14:09.428Z,73.43
2022-10-05T22:16:38.476Z,73.43
2022-10-05T22:19:07.854Z,73.79
2022-10-05T22:21:38.144Z,73.33
2022-10-05T22:24:07.541Z,72.87
2022-10-05T22:26:35.911Z,72.66
2022-10-05T22:29:03.874Z,72.74
2022-10-05T22:31:31.828Z,72.58
2022-10-05T22:33:59.590Z,72.52
2022-10-05T22:36:27.343Z,72.55
2022-10-05T22:38:55.076Z,72.57
2022-10-05T22:41:24.069Z,72.75
2022-10-05T22:43:51.981Z,72.54
2022-10-05T22:46:20.249Z,72.92
2022-10-05T22:48:48.019Z,72.69
2022-10-05T22:51:15.640Z,73.20
2022-10-05T22:53:43.311Z,73.28
2022-10-05T22:56:12.555Z,73.39
2022-10-05T22:58:42.597Z,72.82
2022-10-05T23:01:11.997Z,72.77
2022-10-05T23:03:39.664Z,73.01
2022-10-05T23:06:09.592Z,73.06
2022-10-05T23:08:38.097Z,72.85
2022-10-05T23:11:06.697Z,73.44
2022-10-05T23:13:34.599Z,73.29
2022-10-05T23:16:08.469Z,73.23
2022-10-05T23:18:36.407Z,72.77
2022-10-05T23:21:05.637Z,72.73
2022-10-05T23:23:33.431Z,72.75
2022-10-05T23:26:01.490Z,72.75
2022-10-05T23:28:29.622Z,72.76
2022-10-05T23:31:00.956Z,72.93
2022-10-05T23:33:30.053Z,73.03
2022-10-05T23:36:01.128Z,72.81
2022-10-05T23:38:29.972Z,73.29
2022-10-05T23:40:58.576Z,73.49
2022-10-05T23:43:26.432Z,73.73
2022-10-05T23:45:54.249Z,73.93
2022-10-05T23:48:22.179Z,74.45
2022-10-05T23:50:51.725Z,74.57
2022-10-05T23:53:20.075Z,74.76
2022-10-05T23:55:50.724Z,75.05
2022-10-05T23:58:18.716Z,75.47
